sensor_id;sensor_type;location;lat;lon;timestamp;pressure;altitude;pressure_sealevel;temperature;humidity
39243;BME280;29823;47.404;8.566;2023-05-22T00:01:51;96131.94;;;16.72;100.00
39243;BME280;29823;47.404;8.566;2023-05-22T00:04:22;96129.81;;;16.64;100.00
39243;BME280;29823;47.404;8.566;2023-05-22T00:06:50;96124.75;;;16.52;100.00
39243;BME280;29823;47.404;8.566;2023-05-22T00:09:18;96129.59;;;16.50;100.00
39243;BME280;29823;47.404;8.566;2023-05-22T00:11:46;96126.94;;;16.35;100.00
39243;BME280;29823;47.404;8.566;2023-05-22T00:14:15;96134.53;;;16.28;100.00
39243;BME280;29823;47.404;8.566;2023-05-22T00:16:43;96138.84;;;16.24;100.00
39243;BME280;29823;47.404;8.566;2023-05-22T00:19:11;96142.16;;;16.11;100.00
39243;BME280;29823;47.404;8.566;2023-05-22T00:21:44;96144.84;;;16.06;100.00
39243;BME280;29823;47.404;8.566;2023-05-22T00:24:12;96138.94;;;15.99;100.00
39243;BME280;29823;47.404;8.566;2023-05-22T00:26:40;96143.78;;;15.97;100.00
39243;BME280;29823;47.404;8.566;2023-05-22T00:29:08;96142.19;;;15.91;100.00
39243;BME280;29823;47.404;8.566;2023-05-22T00:31:37;96130.38;;;15.82;100.00
39243;BME280;29823;47.404;8.566;2023-05-22T00:34:05;96144.91;;;15.86;100.00
39243;BME280;29823;47.404;8.566;2023-05-22T00:36:33;96127.13;;;15.70;100.00
39243;BME280;29823;47.404;8.566;2023-05-22T00:39:01;96136.28;;;15.74;100.00
39243;BME280;29823;47.404;8.566;2023-05-22T00:41:30;96136.31;;;15.59;100.00
39243;BME280;29823;47.404;8.566;2023-05-22T00:43:59;96130.97;;;15.49;100.00
39243;BME280;29823;47.404;8.566;2023-05-22T00:46:28;96146.03;;;15.55;100.00
39243;BME280;29823;47.404;8.566;2023-05-22T00:48:58;96140.41;;;15.47;100.00
39243;BME280;29823;47.404;8.566;2023-05-22T00:51:26;96146.84;;;15.46;100.00
39243;BME280;29823;47.404;8.566;2023-05-22T00:53:54;96147.13;;;15.44;100.00
39243;BME280;29823;47.404;8.566;2023-05-22T00:56:23;96148.75;;;15.55;100.00
39243;BME280;29823;47.404;8.566;2023-05-22T00:58:52;96145.50;;;15.48;100.00
39243;BME280;29823;47.404;8.566;2023-05-22T01:01:20;96148.75;;;15.45;100.00
39243;BME280;29823;47.404;8.566;2023-05-22T01:03:49;96154.13;;;15.45;100.00
39243;BME280;29823;47.404;8.566;2023-05-22T01:06:20;96151.97;;;15.47;100.00
39243;BME280;29823;47.404;8.566;2023-05-22T01:08:48;96142.50;;;15.30;100.00
39243;BME280;29823;47.404;8.566;2023-05-22T01:11:21;96153.28;;;15.30;100.00
39243;BME280;29823;47.404;8.566;2023-05-22T01:13:56;96150.31;;;15.26;100.00
39243;BME280;29823;47.404;8.566;2023-05-22T01:16:34;96146.00;;;15.15;100.00
39243;BME280;29823;47.404;8.566;2023-05-22T01:19:10;96148.16;;;15.08;100.00
39243;BME280;29823;47.404;8.566;2023-05-22T01:21:50;96141.94;;;14.88;100.00
39243;BME280;29823;47.404;8.566;2023-05-22T01:24:47;96142.50;;;15.05;100.00
39243;BME280;29823;47.404;8.566;2023-05-22T01:27:39;96133.03;;;14.82;100.00
39243;BME280;29823;47.404;8.566;2023-05-22T01:33:21;96134.63;;;14.63;100.00
39243;BME280;29823;47.404;8.566;2023-05-22T01:35:53;96155.88;;;14.65;100.00
39243;BME280;29823;47.404;8.566;2023-05-22T01:38:24;96150.72;;;14.48;100.00
39243;BME280;29823;47.404;8.566;2023-05-22T01:40:52;96161.53;;;14.63;100.00
39243;BME280;29823;47.404;8.566;2023-05-22T01:43:21;96159.13;;;14.82;100.00
39243;BME280;29823;47.404;8.566;2023-05-22T01:45:49;96163.38;;;14.58;100.00
39243;BME280;29823;47.404;8.566;2023-05-22T01:48:17;96163.84;;;14.35;100.00
39243;BME280;29823;47.404;8.566;2023-05-22T01:50:50;96162.53;;;14.42;100.00
39243;BME280;29823;47.404;8.566;2023-05-22T01:53:28;96169.75;;;14.32;100.00
39243;BME280;29823;47.404;8.566;2023-05-22T01:56:05;96163.59;;;14.41;100.00
39243;BME280;29823;47.404;8.566;2023-05-22T01:58:44;96163.25;;;14.28;100.00
39243;BME280;29823;47.404;8.566;2023-05-22T02:01:13;96161.84;;;14.15;100.00
39243;BME280;29823;47.404;8.566;2023-05-22T02:03:44;96162.13;;;14.14;100.00
39243;BME280;29823;47.404;8.566;2023-05-22T02:06:15;96169.31;;;14.08;100.00
39243;BME280;29823;47.404;8.566;2023-05-22T02:08:43;96173.06;;;14.02;100.00
39243;BME280;29823;47.404;8.566;2023-05-22T02:11:12;96168.22;;;13.99;100.00
39243;BME280;29823;47.404;8.566;2023-05-22T02:13:43;96170.94;;;14.04;100.00
39243;BME280;29823;47.404;8.566;2023-05-22T02:16:11;96167.78;;;14.17;100.00
39243;BME280;29823;47.404;8.566;2023-05-22T02:18:40;96162.66;;;14.16;100.00
39243;BME280;29823;47.404;8.566;2023-05-22T02:21:09;96164.75;;;14.04;100.00
39243;BME280;29823;47.404;8.566;2023-05-22T02:23:38;96152.09;;;13.99;100.00
39243;BME280;29823;47.404;8.566;2023-05-22T02:26:06;96156.34;;;13.90;100.00
39243;BME280;29823;47.404;8.566;2023-05-22T02:28:34;96164.47;;;14.00;100.00
39243;BME280;29823;47.404;8.566;2023-05-22T02:31:03;96162.09;;;14.09;100.00
39243;BME280;29823;47.404;8.566;2023-05-22T02:33:31;96168.28;;;14.09;100.00
39243;BME280;29823;47.404;8.566;2023-05-22T02:35:59;96156.94;;;14.02;100.00
39243;BME280;29823;47.404;8.566;2023-05-22T02:38:26;96155.34;;;14.06;100.00
39243;BME280;29823;47.404;8.566;2023-05-22T02:40:56;96159.69;;;14.12;100.00
39243;BME280;29823;47.404;8.566;2023-05-22T02:43:23;96159.97;;;14.16;100.00
39243;BME280;29823;47.404;8.566;2023-05-22T02:45:51;96158.63;;;14.18;100.00
39243;BME280;29823;47.404;8.566;2023-05-22T02:48:19;96148.38;;;14.10;100.00
39243;BME280;29823;47.404;8.566;2023-05-22T02:50:48;96160.69;;;14.01;100.00
39243;BME280;29823;47.404;8.566;2023-05-22T02:53:15;96160.09;;;13.89;100.00
39243;BME280;29823;47.404;8.566;2023-05-22T02:55:43;96160.66;;;13.96;100.00
39243;BME280;29823;47.404;8.566;2023-05-22T02:58:12;96167.59;;;13.87;100.00
39243;BME280;29823;47.404;8.566;2023-05-22T03:00:40;96166.69;;;13.72;100.00
39243;BME280;29823;47.404;8.566;2023-05-22T03:03:08;96165.63;;;13.73;100.00
39243;BME280;29823;47.404;8.566;2023-05-22T03:05:40;96165.34;;;13.69;100.00
39243;BME280;29823;47.404;8.566;2023-05-22T03:08:08;96165.97;;;13.86;100.00
39243;BME280;29823;47.404;8.566;2023-05-22T03:10:37;96157.88;;;13.81;100.00
39243;BME280;29823;47.404;8.566;2023-05-22T03:13:05;96164.28;;;13.70;100.00
39243;BME280;29823;47.404;8.566;2023-05-22T03:15:34;96172.97;;;13.87;100.00
39243;BME280;29823;47.404;8.566;2023-05-22T03:18:02;96176.91;;;13.70;100.00
39243;BME280;29823;47.404;8.566;2023-05-22T03:20:30;96173.38;;;13.64;100.00
39243;BME280;29823;47.404;8.566;2023-05-22T03:22:59;96167.78;;;13.71;100.00
39243;BME280;29823;47.404;8.566;2023-05-22T03:25:27;96166.91;;;13.65;100.00
39243;BME280;29823;47.404;8.566;2023-05-22T03:27:55;96159.94;;;13.64;100.00
39243;BME280;29823;47.404;8.566;2023-05-22T03:30:23;96166.75;;;13.77;100.00
39243;BME280;29823;47.404;8.566;2023-05-22T03:32:52;96167.44;;;13.62;100.00
39243;BME280;29823;47.404;8.566;2023-05-22T03:35:20;96166.31;;;13.53;100.00
39243;BME280;29823;47.404;8.566;2023-05-22T03:37:48;96166.88;;;13.55;100.00
39243;BME280;29823;47.404;8.566;2023-05-22T03:40:16;96164.44;;;13.54;100.00
39243;BME280;29823;47.404;8.566;2023-05-22T03:42:44;96166.88;;;13.55;100.00
39243;BME280;29823;47.404;8.566;2023-05-22T03:45:12;96163.97;;;13.67;100.00
39243;BME280;29823;47.404;8.566;2023-05-22T03:47:40;96155.91;;;13.67;100.00
39243;BME280;29823;47.404;8.566;2023-05-22T03:50:09;96157.78;;;13.61;100.00
39243;BME280;29823;47.404;8.566;2023-05-22T03:52:37;96176.34;;;13.68;100.00
39243;BME280;29823;47.404;8.566;2023-05-22T03:55:07;96161.78;;;13.59;100.00
39243;BME280;29823;47.404;8.566;2023-05-22T03:57:34;96170.44;;;13.66;100.00
39243;BME280;29823;47.404;8.566;2023-05-22T04:00:03;96179.03;;;13.68;100.00
39243;BME280;29823;47.404;8.566;2023-05-22T04:02:35;96177.19;;;13.73;100.00
39243;BME280;29823;47.404;8.566;2023-05-22T04:05:07;96179.91;;;13.78;100.00
39243;BME280;29823;47.404;8.566;2023-05-22T04:07:36;96183.72;;;13.82;100.00
39243;BME280;29823;47.404;8.566;2023-05-22T04:10:05;96188.06;;;13.88;100.00
39243;BME280;29823;47.404;8.566;2023-05-22T04:12:33;96187.53;;;13.96;100.00
39243;BME280;29823;47.404;8.566;2023-05-22T04:15:01;96181.97;;;14.08;100.00
39243;BME280;29823;47.404;8.566;2023-05-22T04:17:32;96191.88;;;14.02;100.00
39243;BME280;29823;47.404;8.566;2023-05-22T04:20:00;96193.47;;;13.98;100.00
39243;BME280;29823;47.404;8.566;2023-05-22T04:22:30;96192.66;;;13.98;100.00
39243;BME280;29823;47.404;8.566;2023-05-22T04:24:59;96196.25;;;14.13;100.00
39243;BME280;29823;47.404;8.566;2023-05-22T04:27:28;96202.78;;;14.22;100.00
39243;BME280;29823;47.404;8.566;2023-05-22T04:29:55;96202.00;;;14.27;100.00
39243;BME280;29823;47.404;8.566;2023-05-22T04:32:25;96184.53;;;14.34;100.00
39243;BME280;29823;47.404;8.566;2023-05-22T04:34:55;96188.97;;;14.60;100.00
39243;BME280;29823;47.404;8.566;2023-05-22T04:37:23;96194.13;;;14.72;100.00
39243;BME280;29823;47.404;8.566;2023-05-22T04:39:54;96192.78;;;14.74;100.00
39243;BME280;29823;47.404;8.566;2023-05-22T04:42:25;96199.22;;;14.73;100.00
39243;BME280;29823;47.404;8.566;2023-05-22T04:44:53;96201.41;;;14.81;100.00
39243;BME280;29823;47.404;8.566;2023-05-22T04:47:23;96208.94;;;14.84;100.00
39243;BME280;29823;47.404;8.566;2023-05-22T04:49:51;96209.47;;;14.81;100.00
39243;BME280;29823;47.404;8.566;2023-05-22T04:52:19;96214.34;;;14.94;100.00
39243;BME280;29823;47.404;8.566;2023-05-22T04:54:47;96203.34;;;15.06;100.00
39243;BME280;29823;47.404;8.566;2023-05-22T04:57:17;96212.81;;;15.18;100.00
39243;BME280;29823;47.404;8.566;2023-05-22T04:59:48;96213.88;;;15.22;100.00
39243;BME280;29823;47.404;8.566;2023-05-22T05:02:15;96212.25;;;15.21;100.00
39243;BME280;29823;47.404;8.566;2023-05-22T05:04:43;96216.03;;;15.30;100.00
39243;BME280;29823;47.404;8.566;2023-05-22T05:07:13;96215.00;;;15.46;100.00
39243;BME280;29823;47.404;8.566;2023-05-22T05:09:44;96216.63;;;15.57;100.00
39243;BME280;29823;47.404;8.566;2023-05-22T05:12:12;96217.16;;;15.74;100.00
39243;BME280;29823;47.404;8.566;2023-05-22T05:14:40;96215.56;;;15.83;100.00
39243;BME280;29823;47.404;8.566;2023-05-22T05:17:09;96211.22;;;15.92;100.00
39243;BME280;29823;47.404;8.566;2023-05-22T05:19:37;96208.00;;;15.85;100.00
39243;BME280;29823;47.404;8.566;2023-05-22T05:22:05;96218.78;;;15.90;100.00
39243;BME280;29823;47.404;8.566;2023-05-22T05:24:33;96225.50;;;16.08;100.00
39243;BME280;29823;47.404;8.566;2023-05-22T05:27:01;96219.53;;;16.06;100.00
39243;BME280;29823;47.404;8.566;2023-05-22T05:29:28;96210.09;;;16.13;100.00
39243;BME280;29823;47.404;8.566;2023-05-22T05:31:56;96222.53;;;16.14;100.00
39243;BME280;29823;47.404;8.566;2023-05-22T05:34:25;96221.94;;;16.32;100.00
39243;BME280;29823;47.404;8.566;2023-05-22T05:36:53;96219.75;;;16.49;100.00
39243;BME280;29823;47.404;8.566;2023-05-22T05:39:23;96216.28;;;16.44;100.00
39243;BME280;29823;47.404;8.566;2023-05-22T05:41:50;96215.88;;;16.75;100.00
39243;BME280;29823;47.404;8.566;2023-05-22T05:44:18;96206.56;;;17.01;100.00
39243;BME280;29823;47.404;8.566;2023-05-22T05:46:47;96206.94;;;17.28;100.00
39243;BME280;29823;47.404;8.566;2023-05-22T05:49:15;96207.69;;;17.39;100.00
39243;BME280;29823;47.404;8.566;2023-05-22T05:51:44;96210.47;;;17.67;100.00
39243;BME280;29823;47.404;8.566;2023-05-22T05:54:12;96214.81;;;17.97;100.00
39243;BME280;29823;47.404;8.566;2023-05-22T05:56:40;96207.09;;;18.09;100.00
39243;BME280;29823;47.404;8.566;2023-05-22T05:59:08;96210.13;;;18.02;100.00
39243;BME280;29823;47.404;8.566;2023-05-22T06:01:36;96210.34;;;18.11;100.00
39243;BME280;29823;47.404;8.566;2023-05-22T06:04:05;96220.13;;;18.07;100.00
39243;BME280;29823;47.404;8.566;2023-05-22T06:06:34;96221.66;;;18.46;100.00
39243;BME280;29823;47.404;8.566;2023-05-22T06:09:04;96208.91;;;18.70;100.00
39243;BME280;29823;47.404;8.566;2023-05-22T06:11:32;96216.44;;;18.73;100.00
39243;BME280;29823;47.404;8.566;2023-05-22T06:14:00;96222.25;;;18.85;100.00
39243;BME280;29823;47.404;8.566;2023-05-22T06:16:29;96219.00;;;18.83;100.00
39243;BME280;29823;47.404;8.566;2023-05-22T06:18:58;96220.38;;;19.04;100.00
39243;BME280;29823;47.404;8.566;2023-05-22T06:21:26;96225.97;;;19.31;100.00
39243;BME280;29823;47.404;8.566;2023-05-22T06:23:54;96227.69;;;19.27;100.00
39243;BME280;29823;47.404;8.566;2023-05-22T06:26:23;96225.34;;;19.58;100.00
39243;BME280;29823;47.404;8.566;2023-05-22T06:28:51;96229.59;;;19.64;100.00
39243;BME280;29823;47.404;8.566;2023-05-22T06:31:20;96229.59;;;19.96;100.00
39243;BME280;29823;47.404;8.566;2023-05-22T06:33:49;96230.53;;;20.50;100.00
39243;BME280;29823;47.404;8.566;2023-05-22T06:36:18;96225.00;;;20.55;100.00
39243;BME280;29823;47.404;8.566;2023-05-22T06:38:46;96219.56;;;20.55;100.00
39243;BME280;29823;47.404;8.566;2023-05-22T06:41:15;96220.78;;;20.49;100.00
39243;BME280;29823;47.404;8.566;2023-05-22T06:43:44;96213.06;;;20.70;100.00
39243;BME280;29823;47.404;8.566;2023-05-22T06:46:12;96214.97;;;20.69;100.00
39243;BME280;29823;47.404;8.566;2023-05-22T06:48:40;96213.34;;;20.55;100.00
39243;BME280;29823;47.404;8.566;2023-05-22T06:51:08;96211.75;;;20.67;100.00
39243;BME280;29823;47.404;8.566;2023-05-22T06:53:37;96212.75;;;20.98;100.00
39243;BME280;29823;47.404;8.566;2023-05-22T06:56:05;96215.34;;;21.17;100.00
39243;BME280;29823;47.404;8.566;2023-05-22T06:58:33;96213.56;;;21.12;100.00
39243;BME280;29823;47.404;8.566;2023-05-22T07:01:02;96216.16;;;21.17;100.00
39243;BME280;29823;47.404;8.566;2023-05-22T07:03:30;96216.00;;;21.49;98.64
39243;BME280;29823;47.404;8.566;2023-05-22T07:05:58;96216.81;;;21.85;98.11
39243;BME280;29823;47.404;8.566;2023-05-22T07:08:26;96222.50;;;21.75;98.50
39243;BME280;29823;47.404;8.566;2023-05-22T07:10:56;96225.31;;;22.14;89.29
39243;BME280;29823;47.404;8.566;2023-05-22T07:13:24;96223.59;;;22.18;90.45
39243;BME280;29823;47.404;8.566;2023-05-22T07:15:52;96220.81;;;22.10;91.62
39243;BME280;29823;47.404;8.566;2023-05-22T07:18:21;96222.56;;;22.36;89.37
39243;BME280;29823;47.404;8.566;2023-05-22T07:20:49;96218.09;;;22.40;84.91
39243;BME280;29823;47.404;8.566;2023-05-22T07:23:17;96219.56;;;22.68;86.48
39243;BME280;29823;47.404;8.566;2023-05-22T07:25:45;96218.84;;;22.93;85.29
39243;BME280;29823;47.404;8.566;2023-05-22T07:28:13;96217.97;;;23.23;77.96
39243;BME280;29823;47.404;8.566;2023-05-22T07:30:41;96211.63;;;23.62;77.32
39243;BME280;29823;47.404;8.566;2023-05-22T07:33:09;96214.97;;;23.67;75.28
39243;BME280;29823;47.404;8.566;2023-05-22T07:35:38;96220.56;;;24.30;73.28
39243;BME280;29823;47.404;8.566;2023-05-22T07:38:06;96210.31;;;23.76;72.59
39243;BME280;29823;47.404;8.566;2023-05-22T07:40:34;96216.19;;;24.46;65.88
39243;BME280;29823;47.404;8.566;2023-05-22T07:43:02;96211.59;;;23.79;65.76
39243;BME280;29823;47.404;8.566;2023-05-22T07:45:30;96213.19;;;24.22;65.66
39243;BME280;29823;47.404;8.566;2023-05-22T07:47:58;96216.53;;;25.49;62.57
39243;BME280;29823;47.404;8.566;2023-05-22T07:50:27;96218.41;;;25.36;61.81
39243;BME280;29823;47.404;8.566;2023-05-22T07:52:57;96212.06;;;25.44;61.26
39243;BME280;29823;47.404;8.566;2023-05-22T07:55:25;96206.47;;;25.61;59.84
39243;BME280;29823;47.404;8.566;2023-05-22T07:57:55;96209.53;;;25.39;62.88
39243;BME280;29823;47.404;8.566;2023-05-22T08:00:23;96201.47;;;26.49;58.18
39243;BME280;29823;47.404;8.566;2023-05-22T08:02:51;96200.09;;;27.23;57.23
39243;BME280;29823;47.404;8.566;2023-05-22T08:05:19;96200.31;;;26.82;58.26
39243;BME280;29823;47.404;8.566;2023-05-22T08:07:47;96203.28;;;26.00;55.94
39243;BME280;29823;47.404;8.566;2023-05-22T08:10:17;96198.63;;;26.45;55.43
39243;BME280;29823;47.404;8.566;2023-05-22T08:12:45;96194.81;;;26.94;56.97
39243;BME280;29823;47.404;8.566;2023-05-22T08:15:13;96197.34;;;26.43;55.13
39243;BME280;29823;47.404;8.566;2023-05-22T08:17:41;96191.84;;;27.47;55.14
39243;BME280;29823;47.404;8.566;2023-05-22T08:20:10;96197.13;;;27.16;55.38
39243;BME280;29823;47.404;8.566;2023-05-22T08:22:38;96190.63;;;27.33;55.49
39243;BME280;29823;47.404;8.566;2023-05-22T08:25:07;96195.47;;;27.63;54.62
39243;BME280;29823;47.404;8.566;2023-05-22T08:27:37;96196.13;;;28.12;53.22
39243;BME280;29823;47.404;8.566;2023-05-22T08:30:06;96191.09;;;28.41;49.98
39243;BME280;29823;47.404;8.566;2023-05-22T08:32:34;96191.78;;;27.83;51.99
39243;BME280;29823;47.404;8.566;2023-05-22T08:35:02;96176.56;;;28.56;52.45
39243;BME280;29823;47.404;8.566;2023-05-22T08:37:30;96185.19;;;28.86;49.68
39243;BME280;29823;47.404;8.566;2023-05-22T08:39:58;96184.31;;;26.72;53.00
39243;BME280;29823;47.404;8.566;2023-05-22T08:42:26;96181.28;;;28.01;52.37
39243;BME280;29823;47.404;8.566;2023-05-22T08:44:55;96178.19;;;28.02;52.67
39243;BME280;29823;47.404;8.566;2023-05-22T08:47:26;96186.94;;;27.92;52.43
39243;BME280;29823;47.404;8.566;2023-05-22T08:49:56;96172.47;;;28.23;49.86
39243;BME280;29823;47.404;8.566;2023-05-22T08:52:33;96186.59;;;28.49;51.32
39243;BME280;29823;47.404;8.566;2023-05-22T08:55:02;96179.06;;;29.92;46.52
39243;BME280;29823;47.404;8.566;2023-05-22T08:57:31;96189.63;;;30.09;44.07
39243;BME280;29823;47.404;8.566;2023-05-22T09:00:02;96178.22;;;30.26;44.51
39243;BME280;29823;47.404;8.566;2023-05-22T09:02:31;96179.59;;;28.82;48.84
39243;BME280;29823;47.404;8.566;2023-05-22T09:05:00;96170.56;;;28.97;46.78
39243;BME280;29823;47.404;8.566;2023-05-22T09:07:30;96164.69;;;28.68;48.25
39243;BME280;29823;47.404;8.566;2023-05-22T09:09:58;96180.81;;;30.00;44.99
39243;BME280;29823;47.404;8.566;2023-05-22T09:12:26;96177.00;;;30.08;43.94
39243;BME280;29823;47.404;8.566;2023-05-22T09:14:54;96174.59;;;30.45;43.25
39243;BME280;29823;47.404;8.566;2023-05-22T09:17:25;96173.75;;;31.05;41.92
39243;BME280;29823;47.404;8.566;2023-05-22T09:19:53;96176.75;;;32.30;39.77
39243;BME280;29823;47.404;8.566;2023-05-22T09:22:21;96170.34;;;30.09;43.78
39243;BME280;29823;47.404;8.566;2023-05-22T09:24:50;96170.91;;;31.24;42.59
39243;BME280;29823;47.404;8.566;2023-05-22T09:27:21;96171.63;;;29.77;44.33
39243;BME280;29823;47.404;8.566;2023-05-22T09:29:51;96182.91;;;30.26;44.54
39243;BME280;29823;47.404;8.566;2023-05-22T09:32:21;96176.91;;;30.62;45.35
39243;BME280;29823;47.404;8.566;2023-05-22T09:34:51;96177.59;;;31.00;42.24
39243;BME280;29823;47.404;8.566;2023-05-22T09:37:19;96165.03;;;31.77;41.59
39243;BME280;29823;47.404;8.566;2023-05-22T09:39:47;96161.72;;;30.71;40.30
39243;BME280;29823;47.404;8.566;2023-05-22T09:42:16;96170.41;;;31.18;40.64
39243;BME280;29823;47.404;8.566;2023-05-22T09:44:47;96170.78;;;31.39;42.05
39243;BME280;29823;47.404;8.566;2023-05-22T09:47:15;96163.56;;;31.87;39.88
39243;BME280;29823;47.404;8.566;2023-05-22T09:49:44;96157.75;;;31.69;38.84
39243;BME280;29823;47.404;8.566;2023-05-22T09:52:14;96152.22;;;32.28;38.80
39243;BME280;29823;47.404;8.566;2023-05-22T09:54:44;96159.53;;;31.81;39.15
39243;BME280;29823;47.404;8.566;2023-05-22T09:57:16;96156.41;;;32.48;39.81
39243;BME280;29823;47.404;8.566;2023-05-22T09:59:48;96156.09;;;32.97;37.05
39243;BME280;29823;47.404;8.566;2023-05-22T10:02:21;96154.88;;;33.41;35.76
39243;BME280;29823;47.404;8.566;2023-05-22T10:04:50;96163.63;;;32.96;35.77
39243;BME280;29823;47.404;8.566;2023-05-22T10:07:21;96155.72;;;34.17;33.78
39243;BME280;29823;47.404;8.566;2023-05-22T10:09:51;96150.78;;;32.78;37.57
39243;BME280;29823;47.404;8.566;2023-05-22T10:12:22;96153.47;;;31.20;38.50
39243;BME280;29823;47.404;8.566;2023-05-22T10:14:51;96153.47;;;31.46;38.61
39243;BME280;29823;47.404;8.566;2023-05-22T10:17:20;96146.47;;;32.80;36.18
39243;BME280;29823;47.404;8.566;2023-05-22T10:19:48;96146.91;;;32.86;35.46
39243;BME280;29823;47.404;8.566;2023-05-22T10:22:17;96145.00;;;32.97;35.54
39243;BME280;29823;47.404;8.566;2023-05-22T10:24:49;96144.91;;;32.46;37.88
39243;BME280;29823;47.404;8.566;2023-05-22T10:27:17;96142.03;;;32.36;37.37
39243;BME280;29823;47.404;8.566;2023-05-22T10:29:50;96134.41;;;33.63;34.78
39243;BME280;29823;47.404;8.566;2023-05-22T10:32:24;96132.03;;;32.28;36.23
39243;BME280;29823;47.404;8.566;2023-05-22T10:35:00;96133.66;;;33.70;35.98
39243;BME280;29823;47.404;8.566;2023-05-22T10:37:41;96126.78;;;34.21;35.16
39243;BME280;29823;47.404;8.566;2023-05-22T10:40:15;96125.19;;;34.20;34.18
39243;BME280;29823;47.404;8.566;2023-05-22T10:42:45;96123.53;;;33.30;35.98
39243;BME280;29823;47.404;8.566;2023-05-22T10:45:15;96114.59;;;33.61;36.76
39243;BME280;29823;47.404;8.566;2023-05-22T10:47:43;96122.63;;;33.80;35.38
39243;BME280;29823;47.404;8.566;2023-05-22T10:50:11;96117.75;;;35.61;30.66
39243;BME280;29823;47.404;8.566;2023-05-22T10:52:39;96117.38;;;34.75;31.85
39243;BME280;29823;47.404;8.566;2023-05-22T10:55:08;96122.59;;;33.73;34.21
39243;BME280;29823;47.404;8.566;2023-05-22T10:57:38;96108.13;;;33.36;34.67
39243;BME280;29823;47.404;8.566;2023-05-22T11:00:08;96104.44;;;33.25;35.15
39243;BME280;29823;47.404;8.566;2023-05-22T11:02:41;96099.72;;;33.97;34.08
39243;BME280;29823;47.404;8.566;2023-05-22T11:05:32;96099.09;;;34.49;32.00
39243;BME280;29823;47.404;8.566;2023-05-22T11:11:13;96096.00;;;36.38;30.13
39243;BME280;29823;47.404;8.566;2023-05-22T11:13:42;96092.00;;;35.29;32.88
39243;BME280;29823;47.404;8.566;2023-05-22T11:16:10;96096.28;;;34.28;32.74
39243;BME280;29823;47.404;8.566;2023-05-22T11:18:38;96085.63;;;35.18;33.31
39243;BME280;29823;47.404;8.566;2023-05-22T11:21:08;96090.03;;;34.77;35.24
39243;BME280;29823;47.404;8.566;2023-05-22T11:23:36;96092.66;;;34.17;34.87
39243;BME280;29823;47.404;8.566;2023-05-22T11:26:17;96088.81;;;35.09;33.83
39243;BME280;29823;47.404;8.566;2023-05-22T11:28:50;96091.19;;;35.14;31.09
39243;BME280;29823;47.404;8.566;2023-05-22T11:31:19;96085.59;;;34.34;31.77
39243;BME280;29823;47.404;8.566;2023-05-22T11:33:49;96085.66;;;34.79;34.13
39243;BME280;29823;47.404;8.566;2023-05-22T11:36:17;96079.28;;;33.48;33.24
39243;BME280;29823;47.404;8.566;2023-05-22T11:38:45;96075.72;;;34.92;31.48
39243;BME280;29823;47.404;8.566;2023-05-22T11:41:14;96078.31;;;35.90;29.39
39243;BME280;29823;47.404;8.566;2023-05-22T11:43:42;96071.97;;;35.90;29.59
39243;BME280;29823;47.404;8.566;2023-05-22T11:46:12;96078.50;;;34.57;32.38
39243;BME280;29823;47.404;8.566;2023-05-22T11:48:41;96072.81;;;35.66;30.82
39243;BME280;29823;47.404;8.566;2023-05-22T11:51:09;96079.31;;;34.79;30.60
39243;BME280;29823;47.404;8.566;2023-05-22T11:53:37;96074.09;;;34.49;33.91
39243;BME280;29823;47.404;8.566;2023-05-22T11:56:06;96070.13;;;33.44;34.06
39243;BME280;29823;47.404;8.566;2023-05-22T11:58:33;96072.75;;;33.87;34.27
39243;BME280;29823;47.404;8.566;2023-05-22T12:01:03;96060.88;;;33.94;34.06
39243;BME280;29823;47.404;8.566;2023-05-22T12:03:32;96070.53;;;34.70;32.89
39243;BME280;29823;47.404;8.566;2023-05-22T12:06:00;96074.13;;;33.53;34.76
39243;BME280;29823;47.404;8.566;2023-05-22T12:08:29;96067.75;;;34.28;33.82
39243;BME280;29823;47.404;8.566;2023-05-22T12:10:57;96068.69;;;33.74;33.31
39243;BME280;29823;47.404;8.566;2023-05-22T12:13:27;96067.81;;;32.95;36.26
39243;BME280;29823;47.404;8.566;2023-05-22T12:15:57;96071.00;;;33.62;34.60
39243;BME280;29823;47.404;8.566;2023-05-22T12:18:26;96064.91;;;35.71;33.88
39243;BME280;29823;47.404;8.566;2023-05-22T12:20:55;96040.56;;;35.86;31.25
39243;BME280;29823;47.404;8.566;2023-05-22T12:23:23;96052.72;;;36.16;32.50
39243;BME280;29823;47.404;8.566;2023-05-22T12:25:58;96058.63;;;35.04;35.69
39243;BME280;29823;47.404;8.566;2023-05-22T12:28:27;96061.03;;;34.99;33.29
39243;BME280;29823;47.404;8.566;2023-05-22T12:30:55;96063.41;;;34.65;33.51
39243;BME280;29823;47.404;8.566;2023-05-22T12:33:26;96052.25;;;33.31;35.26
39243;BME280;29823;47.404;8.566;2023-05-22T12:35:56;96059.09;;;33.54;34.24
39243;BME280;29823;47.404;8.566;2023-05-22T12:38:25;96052.66;;;34.29;35.31
39243;BME280;29823;47.404;8.566;2023-05-22T12:40:54;96052.19;;;35.60;33.50
39243;BME280;29823;47.404;8.566;2023-05-22T12:43:22;96041.56;;;34.39;33.10
39243;BME280;29823;47.404;8.566;2023-05-22T12:45:50;96050.00;;;33.57;35.27
39243;BME280;29823;47.404;8.566;2023-05-22T12:48:18;96040.78;;;34.42;34.57
39243;BME280;29823;47.404;8.566;2023-05-22T12:50:46;96044.94;;;33.77;33.77
39243;BME280;29823;47.404;8.566;2023-05-22T12:53:15;96041.84;;;35.60;31.12
39243;BME280;29823;47.404;8.566;2023-05-22T12:55:43;96029.56;;;35.47;29.39
39243;BME280;29823;47.404;8.566;2023-05-22T12:58:11;96039.53;;;35.41;29.71
39243;BME280;29823;47.404;8.566;2023-05-22T13:00:39;96041.13;;;35.39;30.38
39243;BME280;29823;47.404;8.566;2023-05-22T13:03:07;96041.81;;;35.74;31.61
39243;BME280;29823;47.404;8.566;2023-05-22T13:05:35;96034.16;;;35.96;29.28
39243;BME280;29823;47.404;8.566;2023-05-22T13:08:03;96036.38;;;35.25;31.10
39243;BME280;29823;47.404;8.566;2023-05-22T13:10:32;96028.09;;;34.97;32.17
39243;BME280;29823;47.404;8.566;2023-05-22T13:13:00;96035.19;;;35.33;31.71